Flight Track Log - Related Links

Times and Time Zones

All times are in EDT time to prevent confusion due to time zone crossing. See the UCA590 flight status page for this flight to view local times or setup timezone preferences in your user account.

Time Position Orientation Groundspeed Altitude Reporting Facility
EDT Latitude Longitude Course Direction KTS MPH feet Rate Location/Type
Fri 01:15:22 PM 41.4111 -81.8372 80° East 129 148 1,800  Level Cleveland Center
Fri 01:15:40 PM 41.4133 -81.8208 80° East 129 148 2,000 684 Climbing Cleveland Center
Fri 01:16:41 PM 41.4119 -81.7569 92° East 219 252 2,700 818 Climbing Cleveland Center
Fri 01:17:08 PM 41.4019 -81.7181 109° East 212 244 3,200 1,082 Climbing Cleveland Center
Fri 01:17:42 PM 41.3747 -81.7231 188° South 202 232 3,800 1,000 Climbing Cleveland Center
Fri 01:18:08 PM 41.3519 -81.7144 164° South 200 230 4,200 985 Climbing Cleveland Center
Fri 01:18:49 PM 41.3253 -81.6808 137° Southeast 204 235 4,900 900 Climbing Cleveland Center
Fri 01:19:08 PM 41.3150 -81.6614 125° Southeast 227 261 5,100 873 Climbing Cleveland Center
Fri 01:19:44 PM 41.2964 -81.6222 122° Southeast 225 259 5,700 900 Climbing Cleveland Center
Fri 01:20:08 PM 41.2864 -81.5972 118° Southeast 217 250 6,000 929 Climbing Cleveland Center
Fri 01:21:08 PM 41.2556 -81.5278 121° Southeast 229 264 7,000 1,000 Climbing Cleveland Center
Fri 01:22:08 PM 41.2208 -81.4528 122° Southeast 229 264 8,000 1,000 Climbing Cleveland Center
Fri 01:23:08 PM 41.1881 -81.3833 122° Southeast 229 264 9,000 1,000 Climbing Cleveland Center
Fri 01:24:08 PM 41.1572 -81.3111 120° Southeast 229 264 10,000 950 Climbing Cleveland Center
Fri 01:25:08 PM 41.1242 -81.2419 122° Southeast 229 264 10,900 900 Climbing Cleveland Center
Fri 01:26:08 PM 41.0808 -81.1892 137° Southeast 229 264 11,800 850 Climbing Cleveland Center
Fri 01:27:08 PM 41.0203 -81.1719 168° South 213 245 12,600 850 Climbing Cleveland Center
Fri 01:28:08 PM 40.9622 -81.1494 164° South 218 251 13,500 800 Climbing Cleveland Center
Fri 01:29:08 PM 40.9017 -81.1297 166° South 226 260 14,200 700 Climbing Cleveland Center
Fri 01:30:08 PM 40.8436 -81.1072 164° South 221 254 14,900 650 Climbing Cleveland Center
Fri 01:31:08 PM 40.7872 -81.0903 167° South 221 254 15,500 650 Climbing Cleveland Center
Fri 01:32:08 PM 40.7289 -81.0681 164° South 221 254 16,200 650 Climbing Cleveland Center
Fri 01:33:08 PM 40.6708 -81.0431 162° South 221 254 16,800 400 Climbing Cleveland Center
Fri 01:34:08 PM 40.6083 -81.0233 167° South 221 254 17,000 100 Climbing Cleveland Center
Fri 01:35:08 PM 40.5397 -80.9983 165° South 242 278 17,000  Level Cleveland Center
Fri 01:36:08 PM 40.4689 -80.9733 165° South 254 292 17,000  Level Cleveland Center
Fri 01:37:08 PM 40.3939 -80.9456 164° South 264 304 17,000  Level Cleveland Center
Fri 01:38:08 PM 40.3128 -80.9181 166° South 274 315 17,000  Level Cleveland Center
Fri 01:39:08 PM 40.2481 -80.8661 149° Southeast 274 315 17,000  Level Cleveland Center
Fri 01:40:08 PM 40.1983 -80.7869 129° Southeast 269 310 17,000  Level Cleveland Center
Fri 01:41:08 PM 40.1464 -80.7133 133° Southeast 274 315 17,000  Level Cleveland Center
Fri 01:42:08 PM 40.0942 -80.6347 131° Southeast 280 322 17,000  Level Cleveland Center
Fri 01:43:08 PM 40.0422 -80.5614 133° Southeast 280 322 17,000  Level Cleveland Center
Fri 01:44:08 PM 39.9900 -80.4856 132° Southeast 280 322 17,000  Level Cleveland Center
Fri 01:45:08 PM 39.9378 -80.4069 131° Southeast 285 328 17,000  Level Cleveland Center
Fri 01:46:08 PM 39.8856 -80.3314 132° Southeast 285 328 17,000  Level Cleveland Center
Fri 01:47:08 PM 39.8353 -80.2586 132° Southeast 285 328 17,000  Level Cleveland Center
Fri 01:48:08 PM 39.7956 -80.1725 121° Southeast 285 328 17,000  Level Cleveland Center
Fri 01:49:08 PM 39.7806 -80.0725 101° East 274 315 17,000  Level Cleveland Center
Fri 01:50:08 PM 39.7633 -79.9728 103° East 274 315 17,000  Level Cleveland Center
Fri 01:51:08 PM 39.7461 -79.8731 103° East 274 315 17,000  Level Cleveland Center
Fri 01:52:08 PM 39.7286 -79.7733 103° East 280 322 17,000  Level Cleveland Center
Fri 01:53:08 PM 39.7133 -79.6764 102° East 280 322 17,000  Level Cleveland Center
Fri 01:54:29 PM 39.6922 -79.5558 103° East 279 321 17,000  Level Washington Center
Fri 01:55:27 PM 39.6747 -79.4550 103° East 279 321 17,000  Level Washington Center
Fri 01:56:28 PM 39.6592 -79.3544 101° East 279 321 17,000  Level Washington Center
Fri 01:57:29 PM 39.6414 -79.2539 103° East 279 321 17,000  Level Washington Center
Fri 01:58:29 PM 39.6236 -79.1533 103° East 279 321 17,000  Level Washington Center
Fri 01:59:27 PM 39.6078 -79.0500 101° East 279 321 17,000 -50 Level Washington Center
Fri 02:00:28 PM 39.5839 -78.9386 106° East 285 328 16,900 -49 Descending Washington Center
Fri 02:01:29 PM 39.5658 -78.8353 103° East 290 334 16,900 -504 Level Washington Center
Fri 02:02:27 PM 39.5478 -78.7297 102° East 290 334 15,900 -1,373 Descending Washington Center
Fri 02:03:27 PM 39.5278 -78.6211 103° East 296 341 14,200 -1,785 Descending Washington Center
Fri 02:04:28 PM 39.5075 -78.5153 104° East 301 346 12,300 -1,835 Descending Washington Center
Fri 02:05:28 PM 39.4869 -78.4122 104° East 301 346 10,500 -1,636 Descending Washington Center
Fri 02:06:29 PM 39.4725 -78.3175 101° East 289 333 9,000 -793 Descending Washington Center
Fri 02:07:29 PM 39.4556 -78.2283 104° East 269 310 8,900 -51 Descending Washington Center
Fri 02:08:27 PM 39.4389 -78.1336 103° East 264 304 8,900 -559 Level Washington Center
Fri 02:09:27 PM 39.4200 -78.0389 104° East 264 304 7,800 -1,150 Descending Washington Center
Fri 02:10:27 PM 39.4011 -77.9444 104° East 269 310 6,600 -1,150 Descending Washington Center
Fri 02:11:27 PM 39.3842 -77.8497 103° East 269 310 5,500 -800 Descending Washington Center
Fri 02:12:27 PM 39.3961 -77.7589 80° East 258 297 5,000 -248 Descending Washington Center
Fri 02:13:28 PM 39.4083 -77.6706 80° East 253 291 5,000  Level Washington Center
Fri 02:14:29 PM 39.4181 -77.5794 82° East 253 291 5,000 -34 Level Washington Center
Fri 02:16:23 PM 39.4500 -77.4000 77° East 253 291 4,900  Descending Potomac TRACON
Fri 02:17:23 PM 39.4500 -77.3167 90° East 257 296 5,000 50 Climbing Potomac TRACON
Fri 02:18:24 PM 39.4667 -77.2167 78° East 253 291 5,000  Level Potomac TRACON
Fri 02:19:24 PM 39.4833 -77.1333 75° East 255 293 5,000  Level Potomac TRACON
Fri 02:20:24 PM 39.5000 -77.0500 75° East 256 295 5,000 -50 Level Potomac TRACON
Fri 02:21:24 PM 39.5333 -76.9667 63° Northeast 261 300 4,900  Descending Potomac TRACON
Fri 02:22:25 PM 39.5500 -76.8833 75° East 264 304 5,000  Climbing Potomac TRACON
Fri 02:23:25 PM 39.5500 -76.7833 90° East 265 305 4,900 -50 Descending Potomac TRACON
Fri 02:24:25 PM 39.5167 -76.7000 117° Southeast 259 298 4,900 -50 Level Potomac TRACON
Fri 02:25:25 PM 39.4667 -76.6333 134° Southeast 261 300 4,800 -500 Descending Potomac TRACON
Fri 02:26:25 PM 39.4000 -76.5667 142° Southeast 264 304 3,900 -450 Descending Potomac TRACON
Fri 02:27:25 PM 39.3500 -76.5000 134° Southeast 250 288 3,900 -450 Level Potomac TRACON
Fri 02:28:25 PM 39.3000 -76.4833 166° South 244 281 3,000 -496 Descending Potomac TRACON
Fri 02:29:26 PM 39.2333 -76.4833 180° South 241 277 2,900 -446 Descending Potomac TRACON
Fri 02:30:26 PM 39.1667 -76.5167 201° Southwest 231 266 2,100 -500 Descending Potomac TRACON
Fri 02:31:26 PM 39.1167 -76.5500 207° Southwest 214 246 1,900 -250 Descending Potomac TRACON
Fri 02:32:26 PM 39.1000 -76.6000 247° West 192 221 1,600 -600 Descending Potomac TRACON
Fri 02:33:26 PM 39.1333 -76.6333 322° Northwest 140 161 700 -900 Descending Potomac TRACON

Login

Don't have an account? Register now (free) for customized features, flight alerts, and more!